Time;durP1;ratioP1;P1;durP2;ratioP2;P2;SDS_P1;SDS_P2;PMS_P1;PMS_P2;Temp;Humidity;BMP_temperature;BMP_pressure;BME280_temperature;BME280_humidity;BME280_pressure;Samples;Min_cycle;Max_cycle;Signal;HPM_P1;HPM_P2
2022/10/29 00:00:56;;;;;;;24.23;14.78;;;;;;;6.70;86.42;98858.36;1697280;84;21005;-75
2022/10/29 00:03:25;;;;;;;28.67;16.42;;;;;;;6.71;86.60;98860.11;1683093;84;21034;-75
2022/10/29 00:05:59;;;;;;;30.68;15.88;;;;;;;6.70;86.52;98862.73;1683757;84;21133;-75
2022/10/29 00:08:29;;;;;;;29.60;16.57;;;;;;;6.69;86.11;98857.89;1698771;84;21036;-75
2022/10/29 00:11:13;;;;;;;23.60;15.40;;;;;;;6.68;86.10;98857.46;1682249;83;21155;-76
2022/10/29 00:13:40;;;;;;;25.75;15.78;;;;;;;6.70;86.44;98862.30;1695600;84;21001;-75
2022/10/29 00:16:18;;;;;;;24.55;14.53;;;;;;;6.71;86.36;98861.42;1693283;84;21289;-75
2022/10/29 00:18:45;;;;;;;23.25;13.00;;;;;;;6.74;86.37;98863.17;1689139;84;21034;-76
2022/10/29 00:21:16;;;;;;;22.35;13.03;;;;;;;6.76;86.34;98866.67;1697440;84;21029;-76
2022/10/29 00:23:43;;;;;;;20.35;11.95;;;;;;;6.80;86.75;98862.28;1695367;84;20996;-75
2022/10/29 00:26:10;;;;;;;20.92;11.97;;;;;;;6.86;86.74;98867.11;1697732;84;21010;-76
2022/10/29 00:28:37;;;;;;;20.97;12.13;;;;;;;6.85;86.69;98869.77;1687317;85;21077;-76
2022/10/29 00:31:09;;;;;;;17.87;11.73;;;;;;;6.90;86.78;98869.76;1664800;85;20982;-75
2022/10/29 00:33:36;;;;;;;18.48;11.35;;;;;;;6.89;86.29;98869.33;1686480;85;21054;-76
2022/10/29 00:36:08;;;;;;;18.45;11.57;;;;;;;6.87;86.43;98868.00;1687171;85;21029;-75
2022/10/29 00:38:35;;;;;;;18.32;11.50;;;;;;;6.83;86.57;98863.61;1686516;84;21010;-75
2022/10/29 00:41:04;;;;;;;17.67;10.68;;;;;;;6.90;86.88;98864.48;1687457;85;21422;-74
2022/10/29 00:43:37;;;;;;;17.02;10.38;;;;;;;6.94;86.84;98869.73;1687516;85;21017;-74
2022/10/29 00:46:11;;;;;;;;;;;;;;;6.99;87.04;98861.84;1690156;85;21013;-74
2022/10/29 00:48:49;;;;;;;14.83;9.90;;;;;;;7.03;86.98;98857.44;1687570;85;20336;-75
2022/10/29 00:51:18;;;;;;;15.53;10.08;;;;;;;7.00;86.60;98857.89;1680838;85;21021;-76
2022/10/29 00:53:51;;;;;;;14.33;9.25;;;;;;;6.98;86.40;98858.78;1687032;85;20978;-76
2022/10/29 00:56:18;;;;;;;17.00;10.15;;;;;;;6.98;86.69;98853.51;1685517;85;21026;-76
2022/10/29 00:58:45;;;;;;;18.12;10.38;;;;;;;7.03;86.72;98853.06;1687529;85;21002;-76
2022/10/29 01:01:14;;;;;;;19.77;11.20;;;;;;;7.02;86.54;98849.96;1686768;85;21005;-76
2022/10/29 01:03:42;;;;;;;15.25;9.15;;;;;;;6.95;86.31;98844.28;1687181;85;21001;-76
2022/10/29 01:06:08;;;;;;;14.95;9.33;;;;;;;6.91;86.10;98850.00;1687327;85;21006;-76
2022/10/29 01:08:35;;;;;;;14.87;10.08;;;;;;;6.82;85.88;98846.91;1687354;85;20961;-75
2022/10/29 01:11:24;;;;;;;17.95;10.00;;;;;;;6.73;85.87;98845.62;1687585;85;21029;-75
2022/10/29 01:14:02;;;;;;;18.10;10.10;;;;;;;6.66;85.93;98838.16;1687570;85;21470;-75
2022/10/29 01:17:06;;;;;;;19.27;10.05;;;;;;;6.64;85.89;98849.11;1656174;85;21582;-75
2022/10/29 01:20:07;;;;;;;19.45;10.70;;;;;;;6.57;85.75;98847.37;1687417;85;20989;-75
2022/10/29 01:22:55;;;;;;;15.08;9.23;;;;;;;6.49;85.87;98842.09;1687556;85;21006;-75
2022/10/29 01:25:46;;;;;;;15.05;9.48;;;;;;;6.41;86.05;98840.78;1687426;85;21081;-75
2022/10/29 01:28:46;;;;;;;19.12;9.75;;;;;;;6.38;85.87;98834.18;1661191;85;21034;-76
2022/10/29 01:31:39;;;;;;;16.20;9.70;;;;;;;6.31;85.89;98835.92;1667892;85;20954;-75
2022/10/29 01:34:12;;;;;;;16.17;9.88;;;;;;;6.25;85.68;98825.82;1687598;85;20998;-76
2022/10/29 01:37:02;;;;;;;17.12;9.55;;;;;;;6.19;86.01;98829.34;1685633;85;21423;-76
2022/10/29 01:39:49;;;;;;;16.37;9.73;;;;;;;6.16;86.20;98832.85;1663208;85;20978;-76
2022/10/29 01:42:30;;;;;;;17.12;9.95;;;;;;;6.13;86.50;98824.94;1687209;83;21018;-76
2022/10/29 01:45:26;;;;;;;22.60;10.38;;;;;;;6.10;87.11;98827.55;1687154;85;20958;-76
2022/10/29 01:48:00;;;;;;;16.75;9.88;;;;;;;6.03;87.09;98823.16;1666213;85;20978;-76
2022/10/29 01:50:27;;;;;;;16.65;10.28;;;;;;;6.00;86.58;98822.69;1686538;83;21002;-76
2022/10/29 01:52:56;;;;;;;16.82;9.83;;;;;;;5.97;86.38;98823.12;1666154;85;20954;-75
2022/10/29 01:55:29;;;;;;;17.12;9.55;;;;;;;5.91;86.44;98823.55;1687461;85;20994;-76
2022/10/29 01:57:56;;;;;;;17.75;9.85;;;;;;;5.88;86.81;98814.33;1687716;85;21001;-75
2022/10/29 02:00:26;;;;;;;16.50;9.10;;;;;;;5.87;86.63;98818.27;1685574;85;21025;-76
2022/10/29 02:03:27;;;;;;;20.23;11.03;;;;;;;5.81;86.50;98812.53;1674665;85;20978;-76
2022/10/29 02:06:20;;;;;;;21.10;11.38;;;;;;;5.80;86.72;98814.73;1686840;85;21018;-76
2022/10/29 02:09:07;;;;;;;23.40;12.53;;;;;;;5.76;86.51;98815.16;1674580;85;21374;-75
2022/10/29 02:11:47;;;;;;;23.92;11.78;;;;;;;5.71;86.57;98822.59;1676904;85;21029;-76
2022/10/29 02:14:25;;;;;;;20.57;11.60;;;;;;;5.67;86.58;98808.56;1687575;85;21009;-76
2022/10/29 02:16:53;;;;;;;16.42;10.65;;;;;;;5.65;86.83;98814.27;1685845;85;21455;-76
2022/10/29 02:19:22;;;;;;;19.12;10.75;;;;;;;5.62;86.82;98809.88;1687202;85;20997;-76
2022/10/29 02:21:50;;;;;;;19.77;11.53;;;;;;;5.60;86.94;98816.00;1687460;85;20990;-76
2022/10/29 02:24:18;;;;;;;18.42;10.82;;;;;;;5.57;86.81;98812.03;1682553;85;21081;-76
2022/10/29 02:26:45;;;;;;;18.15;10.93;;;;;;;5.56;87.09;98812.45;1673836;82;21483;-75
2022/10/29 02:29:12;;;;;;;18.77;10.28;;;;;;;5.53;86.71;98805.44;1673158;86;21035;-75
2022/10/29 02:31:39;;;;;;;17.25;9.68;;;;;;;5.51;86.74;98811.13;1654254;85;21009;-75
2022/10/29 02:34:06;;;;;;;15.00;9.15;;;;;;;5.47;86.69;98809.36;1673305;84;20974;-75
2022/10/29 02:36:33;;;;;;;15.48;8.75;;;;;;;5.45;86.85;98813.75;1673388;85;21480;-76
2022/10/29 02:39:01;;;;;;;14.00;9.00;;;;;;;5.44;87.15;98808.48;1673447;84;20990;-75
2022/10/29 02:41:28;;;;;;;15.45;9.70;;;;;;;5.44;87.03;98802.76;1673175;85;21030;-75
2022/10/29 02:43:56;;;;;;;15.32;9.05;;;;;;;5.45;87.42;98803.66;1673467;84;21007;-75
2022/10/29 02:46:24;;;;;;;16.40;8.98;;;;;;;5.46;87.19;98804.09;1673274;85;21070;-74
2022/10/29 02:48:51;;;;;;;13.35;8.55;;;;;;;5.45;87.04;98804.55;1666255;84;21499;-74
2022/10/29 02:51:19;;;;;;;16.12;9.40;;;;;;;5.46;87.42;98799.72;1673525;85;20999;-74
2022/10/29 02:53:46;;;;;;;12.90;8.33;;;;;;;5.48;87.30;98804.54;1673439;84;21133;-74
2022/10/29 02:56:12;;;;;;;12.15;7.40;;;;;;;5.53;87.16;98803.26;1668842;85;20967;-74
2022/10/29 02:58:39;;;;;;;14.68;8.08;;;;;;;5.54;87.17;98808.95;1671602;85;20978;-74
2022/10/29 03:01:05;;;;;;;13.55;7.70;;;;;;;5.54;87.17;98812.47;1673055;86;21083;-74
2022/10/29 03:03:32;;;;;;;14.28;7.12;;;;;;;5.54;87.29;98800.64;1655102;84;21018;-74
2022/10/29 03:05:59;;;;;;;13.03;7.42;;;;;;;5.57;87.50;98805.45;1673247;84;21011;-74
2022/10/29 03:08:26;;;;;;;11.73;7.60;;;;;;;5.58;87.33;98804.16;1673601;84;20990;-74
2022/10/29 03:10:54;;;;;;;11.35;7.28;;;;;;;5.58;87.61;98801.52;1673220;84;21441;-74
2022/10/29 03:13:22;;;;;;;14.13;7.83;;;;;;;5.65;87.68;98803.74;1673235;86;21504;-75
2022/10/29 03:15:48;;;;;;;16.32;8.23;;;;;;;5.64;87.46;98795.39;1673103;85;20970;-75
2022/10/29 03:18:15;;;;;;;12.73;7.95;;;;;;;5.66;87.70;98813.38;1673675;84;21037;-75
2022/10/29 03:20:46;;;;;;;12.78;7.45;;;;;;;5.68;87.56;98809.88;1673235;84;20990;-75
2022/10/29 03:23:13;;;;;;;13.83;7.75;;;;;;;5.68;87.62;98807.25;1672835;85;21010;-75
2022/10/29 03:25:40;;;;;;;14.20;7.65;;;;;;;5.72;87.57;98794.13;1668270;85;20979;-75
2022/10/29 03:28:08;;;;;;;15.50;7.55;;;;;;;5.67;87.43;98805.50;1673648;85;21075;-75
2022/10/29 03:30:35;;;;;;;13.22;7.55;;;;;;;5.64;87.36;98787.50;1658158;85;21011;-74
2022/10/29 03:33:02;;;;;;;13.00;7.42;;;;;;;5.61;87.41;98801.52;1669142;85;21014;-74
2022/10/29 03:35:28;;;;;;;10.75;7.03;;;;;;;5.68;88.03;98790.58;1683231;84;20982;-75
2022/10/29 03:37:54;;;;;;;10.93;6.45;;;;;;;5.73;88.07;98786.67;1673196;84;21034;-76
2022/10/29 03:40:21;;;;;;;12.90;7.33;;;;;;;5.75;88.06;98798.95;1673557;84;21476;-76
2022/10/29 03:42:47;;;;;;;12.73;7.00;;;;;;;5.76;87.97;98791.49;1673257;85;21002;-75
2022/10/29 03:45:20;;;;;;;12.05;7.85;;;;;;;5.74;87.55;98790.63;1673467;85;20959;-75
2022/10/29 03:47:48;;;;;;;15.85;7.90;;;;;;;5.70;87.59;98791.48;1658604;84;21055;-75
2022/10/29 03:50:15;;;;;;;13.15;7.92;;;;;;;5.66;87.76;98801.55;1671668;86;21435;-75
2022/10/29 03:52:42;;;;;;;13.83;7.05;;;;;;;5.64;87.87;98784.44;1673216;85;21050;-75
2022/10/29 03:55:09;;;;;;;11.63;7.40;;;;;;;5.61;87.46;98792.31;1673380;84;21448;-75
2022/10/29 03:57:35;;;;;;;12.18;7.72;;;;;;;5.58;87.68;98794.06;1673142;85;20986;-76
2022/10/29 04:00:04;;;;;;;10.55;7.20;;;;;;;5.54;87.62;98790.55;1673368;84;21035;-78
2022/10/29 04:02:34;;;;;;;15.10;8.23;;;;;;;5.50;87.35;98796.23;1672533;85;21020;-77
2022/10/29 04:05:00;;;;;;;16.97;7.97;;;;;;;5.41;86.99;98787.86;1673231;85;21026;-77
2022/10/29 04:07:27;;;;;;;11.75;7.70;;;;;;;5.38;87.19;98796.17;1673717;85;20978;-77
2022/10/29 04:09:53;;;;;;;16.40;7.72;;;;;;;5.33;86.93;98792.64;1673081;85;21070;-76
2022/10/29 04:12:21;;;;;;;15.95;8.35;;;;;;;5.28;86.95;98797.89;1652539;84;20974;-76
2022/10/29 04:14:48;;;;;;;11.57;7.95;;;;;;;5.23;87.26;98804.42;1673421;84;20998;-76
2022/10/29 04:17:15;;;;;;;13.48;8.28;;;;;;;5.17;87.87;98800.88;1673332;85;21034;-76
2022/10/29 04:19:41;;;;;;;15.58;8.50;;;;;;;5.13;87.82;98795.63;1673425;84;21392;-75
2022/10/29 04:22:08;;;;;;;13.28;8.40;;;;;;;5.11;87.97;98797.81;1673674;84;21380;-75
2022/10/29 04:24:35;;;;;;;14.40;8.88;;;;;;;5.10;87.50;98797.34;1673299;84;20987;-75
2022/10/29 04:27:01;;;;;;;15.23;8.53;;;;;;;5.06;87.35;98804.79;1673576;84;21400;-75
2022/10/29 04:29:27;;;;;;;17.75;9.43;;;;;;;5.01;87.47;98800.38;1685192;84;21058;-75
2022/10/29 04:31:54;;;;;;;14.18;8.80;;;;;;;4.99;87.45;98809.12;1664246;85;20958;-75
2022/10/29 04:34:26;;;;;;;15.95;8.65;;;;;;;4.98;87.48;98810.86;1668335;83;20994;-75
2022/10/29 04:36:53;;;;;;;13.72;8.63;;;;;;;4.96;87.48;98809.09;1669032;85;21026;-75
2022/10/29 04:39:21;;;;;;;15.85;8.95;;;;;;;4.94;87.63;98813.47;1687453;85;21062;-75
2022/10/29 04:41:51;;;;;;;15.90;8.60;;;;;;;4.93;87.48;98813.00;1686552;85;20998;-75
2022/10/29 04:44:19;;;;;;;12.73;8.13;;;;;;;4.91;87.50;98808.19;1679860;85;21376;-76
2022/10/29 04:46:45;;;;;;;12.85;9.10;;;;;;;4.88;87.61;98809.05;1665197;86;21034;-75
2022/10/29 04:49:12;;;;;;;14.38;9.10;;;;;;;4.86;87.87;98815.59;1659601;85;21471;-75
2022/10/29 04:51:39;;;;;;;16.90;9.58;;;;;;;4.84;88.18;98823.02;1667747;86;20995;-76
2022/10/29 04:54:05;;;;;;;18.07;10.20;;;;;;;4.78;88.13;98815.11;1667790;86;21063;-76
2022/10/29 04:56:31;;;;;;;16.85;9.45;;;;;;;4.75;88.28;98812.91;1665003;85;20987;-75
2022/10/29 04:58:58;;;;;;;16.57;9.30;;;;;;;4.70;88.29;98814.60;1667883;85;21039;-76
2022/10/29 05:01:24;;;;;;;33.92;19.15;;;;;;;4.67;87.99;98813.70;1668080;85;21003;-76
2022/10/29 05:03:51;;;;;;;14.98;9.38;;;;;;;4.64;88.30;98811.94;1667990;85;21034;-76
2022/10/29 05:06:21;;;;;;;16.48;9.93;;;;;;;4.64;88.39;98806.69;1667890;86;21437;-76
2022/10/29 05:08:48;;;;;;;14.90;8.75;;;;;;;4.60;88.26;98817.61;1668016;86;21476;-76
2022/10/29 05:11:14;;;;;;;16.60;9.55;;;;;;;4.55;88.61;98810.55;1667829;86;21007;-76
2022/10/29 05:13:41;;;;;;;20.20;9.55;;;;;;;4.54;89.02;98815.36;1667903;86;21018;-76
2022/10/29 05:16:07;;;;;;;16.75;9.63;;;;;;;4.49;88.93;98812.26;1667642;86;20991;-75
2022/10/29 05:18:36;;;;;;;15.32;8.43;;;;;;;4.47;89.42;98813.11;1662127;85;21456;-77
2022/10/29 05:21:03;;;;;;;17.23;8.73;;;;;;;4.47;88.89;98819.67;1649000;86;21488;-75
2022/10/29 05:23:32;;;;;;;15.65;9.50;;;;;;;4.51;88.80;98824.51;1667932;86;21381;-76
2022/10/29 05:26:01;;;;;;;19.37;10.18;;;;;;;4.57;88.66;98821.51;1667979;85;21424;-77
2022/10/29 05:28:28;;;;;;;20.35;11.97;;;;;;;4.65;88.63;98832.52;1659084;86;21142;-77
2022/10/29 05:30:54;;;;;;;16.95;10.63;;;;;;;4.69;88.76;98826.43;1649324;86;20990;-77
2022/10/29 05:33:23;;;;;;;17.98;9.25;;;;;;;4.74;88.74;98833.91;1667203;86;21452;-77
2022/10/29 05:35:50;;;;;;;16.25;9.23;;;;;;;4.80;88.87;98832.63;1667394;85;21059;-77
2022/10/29 05:38:19;;;;;;;13.28;8.28;;;;;;;4.88;88.90;98832.27;1667861;85;21420;-76
2022/10/29 05:40:45;;;;;;;13.80;9.58;;;;;;;4.96;88.86;98841.92;1668041;85;21455;-76
2022/10/29 05:43:15;;;;;;;14.05;9.53;;;;;;;5.02;88.84;98837.59;1666880;85;21066;-76
2022/10/29 05:45:42;;;;;;;20.32;11.15;;;;;;;5.08;88.99;98842.02;1668232;85;20967;-77
2022/10/29 05:48:11;;;;;;;19.35;11.73;;;;;;;5.20;89.37;98842.95;1667922;85;20999;-77
2022/10/29 05:50:37;;;;;;;19.67;13.32;;;;;;;5.27;89.04;98838.16;1667843;85;20955;-76
2022/10/29 05:53:10;;;;;;;14.68;9.93;;;;;;;5.37;89.18;98837.80;1667791;86;21035;-76
2022/10/29 05:55:37;;;;;;;15.78;9.10;;;;;;;5.44;88.78;98837.39;1667981;85;21437;-76
2022/10/29 05:58:08;;;;;;;15.75;9.05;;;;;;;5.48;88.85;98837.40;1667683;85;20975;-76
2022/10/29 06:00:38;;;;;;;12.80;7.97;;;;;;;5.56;88.91;98834.80;1660969;85;20994;-76
2022/10/29 06:03:21;;;;;;;14.00;7.95;;;;;;;5.64;88.85;98836.14;1640789;86;21440;-76
2022/10/29 06:05:49;;;;;;;15.55;9.35;;;;;;;5.67;88.74;98841.43;1651540;85;20966;-76
2022/10/29 06:08:18;;;;;;;16.20;8.23;;;;;;;5.70;88.92;98834.87;1641144;86;21038;-76
2022/10/29 06:10:44;;;;;;;16.12;9.28;;;;;;;5.73;88.75;98834.02;1640474;86;21416;-76
2022/10/29 06:13:21;;;;;;;13.48;8.60;;;;;;;5.73;88.63;98829.61;1640756;86;21047;-76
2022/10/29 06:15:50;;;;;;;15.55;8.70;;;;;;;5.73;88.70;98829.61;1640809;86;21043;-76
2022/10/29 06:18:16;;;;;;;13.00;8.40;;;;;;;5.67;88.42;98825.66;1640633;86;21068;-76
2022/10/29 06:20:43;;;;;;;13.78;9.05;;;;;;;5.66;88.71;98823.45;1640890;86;21423;-77
2022/10/29 06:23:10;;;;;;;14.75;9.23;;;;;;;5.68;88.63;98824.34;1640522;86;21089;-75
2022/10/29 06:25:37;;;;;;;16.87;8.45;;;;;;;5.70;88.38;98826.98;1640762;86;21023;-75
2022/10/29 06:28:08;;;;;;;15.00;9.58;;;;;;;5.71;88.24;98830.48;1644520;85;21022;-75
2022/10/29 06:30:36;;;;;;;16.48;9.83;;;;;;;5.71;88.41;98828.73;1641122;86;21007;-76
2022/10/29 06:33:05;;;;;;;17.15;9.25;;;;;;;5.72;88.37;98824.38;1663435;86;20979;-75
2022/10/29 06:35:33;;;;;;;18.85;10.05;;;;;;;5.75;88.70;98816.47;1668931;85;21019;-76
2022/10/29 06:37:59;;;;;;;17.35;10.25;;;;;;;5.85;88.74;98816.08;1663238;85;20987;-75
2022/10/29 06:40:28;;;;;;;20.08;11.45;;;;;;;5.94;88.83;98824.00;1667681;85;21023;-76
2022/10/29 06:43:04;;;;;;;19.62;12.78;;;;;;;6.02;89.21;98816.98;1667473;86;21031;-75
2022/10/29 06:45:32;;;;;;;16.45;10.65;;;;;;;6.10;88.98;98826.23;1649010;85;21600;-75
2022/10/29 06:47:59;;;;;;;19.23;11.25;;;;;;;6.18;88.90;98826.25;1687613;85;20978;-75
2022/10/29 06:50:28;;;;;;;22.90;14.07;;;;;;;6.24;88.94;98827.59;1679350;85;21013;-76
2022/10/29 06:53:03;;;;;;;23.95;15.35;;;;;;;6.30;88.90;98832.86;1679109;85;21399;-75
2022/10/29 06:55:30;;;;;;;20.40;14.35;;;;;;;6.38;88.69;98831.98;1684991;85;20989;-76
2022/10/29 06:58:10;;;;;;;20.48;15.32;;;;;;;6.47;88.95;98833.30;1687479;85;20973;-75
2022/10/29 07:00:37;;;;;;;17.30;12.58;;;;;;;6.54;88.76;98835.50;1687499;85;20977;-75
2022/10/29 07:03:05;;;;;;;16.67;10.90;;;;;;;6.60;88.45;98836.81;1687337;85;21407;-75
2022/10/29 07:05:32;;;;;;;17.62;11.15;;;;;;;6.65;88.29;98840.78;1687567;85;20990;-76
2022/10/29 07:08:01;;;;;;;18.40;13.53;;;;;;;6.69;88.21;98840.77;1687272;85;20986;-76
2022/10/29 07:10:30;;;;;;;15.10;10.00;;;;;;;6.76;88.21;98840.79;1687445;85;21006;-76
2022/10/29 07:12:57;;;;;;;14.25;9.35;;;;;;;6.83;88.11;98842.09;1680013;85;21005;-77
2022/10/29 07:15:25;;;;;;;16.07;9.08;;;;;;;6.90;88.12;98842.98;1681304;85;21107;-77
2022/10/29 07:17:59;;;;;;;16.73;9.03;;;;;;;6.96;88.12;98840.33;1687499;85;21021;-75
2022/10/29 07:20:29;;;;;;;13.78;8.13;;;;;;;7.03;88.02;98837.25;1687031;85;21022;-75
2022/10/29 07:23:00;;;;;;;14.15;8.50;;;;;;;7.11;87.99;98844.68;1687530;85;20977;-75
2022/10/29 07:25:25;;;;;;;13.88;8.08;;;;;;;7.19;87.97;98833.26;1686392;83;21006;-74
2022/10/29 07:27:51;;;;;;;14.00;8.28;;;;;;;7.29;87.89;98836.73;1686392;85;21028;-74
2022/10/29 07:30:20;;;;;;;13.85;8.20;;;;;;;7.39;88.09;98843.73;1677050;84;20962;-74
2022/10/29 07:32:49;;;;;;;11.88;7.33;;;;;;;7.49;87.88;98836.69;1653879;85;21101;-73
2022/10/29 07:35:16;;;;;;;10.10;7.42;;;;;;;7.58;87.76;98837.97;1652200;85;21461;-74
2022/10/29 07:37:44;;;;;;;11.83;8.08;;;;;;;7.67;87.65;98834.41;1676133;84;21864;-74
2022/10/29 07:40:13;;;;;;;14.10;8.60;;;;;;;7.76;87.57;98829.52;1648418;85;21086;-75
2022/10/29 07:42:40;;;;;;;12.35;7.25;;;;;;;7.86;87.41;98825.98;1661509;85;21453;-75
2022/10/29 07:45:09;;;;;;;13.55;8.13;;;;;;;7.96;87.37;98821.52;1658188;85;21026;-75
2022/10/29 07:47:36;;;;;;;13.40;7.40;;;;;;;8.04;87.04;98818.41;1644220;85;21044;-75
2022/10/29 07:50:03;;;;;;;14.23;9.13;;;;;;;8.14;87.13;98813.92;1647815;85;21047;-74
2022/10/29 07:52:29;;;;;;;22.82;11.22;;;;;;;8.24;86.81;98817.83;1650427;85;21095;-75
2022/10/29 07:54:56;;;;;;;13.50;9.23;;;;;;;8.32;86.59;98816.88;1655269;85;21072;-75
2022/10/29 07:57:22;;;;;;;14.53;9.85;;;;;;;8.41;86.26;98815.95;1651878;85;21021;-75
2022/10/29 07:59:50;;;;;;;15.30;10.60;;;;;;;8.51;86.31;98810.14;1650245;85;20982;-75
2022/10/29 08:02:17;;;;;;;15.15;9.35;;;;;;;8.62;86.03;98814.05;1651411;85;21010;-76
2022/10/29 08:04:43;;;;;;;14.25;10.20;;;;;;;8.71;85.98;98809.12;1651098;85;20990;-75
2022/10/29 08:07:11;;;;;;;17.42;10.88;;;;;;;8.83;85.62;98809.47;1657125;85;21006;-75
2022/10/29 08:09:38;;;;;;;18.60;11.68;;;;;;;8.94;85.37;98807.62;1643946;85;21027;-75
2022/10/29 08:12:08;;;;;;;18.00;12.03;;;;;;;9.04;85.34;98803.09;1645446;85;21015;-76
2022/10/29 08:14:35;;;;;;;17.40;12.68;;;;;;;9.14;85.13;98805.64;1652404;86;20979;-76
2022/10/29 08:17:01;;;;;;;18.90;13.55;;;;;;;9.24;84.62;98798.04;1646896;85;21431;-76
2022/10/29 08:19:29;;;;;;;24.27;14.20;;;;;;;9.32;84.63;98797.52;1640560;86;21010;-76
2022/10/29 08:21:56;;;;;;;67.47;37.98;;;;;;;9.42;84.25;98797.41;1640885;86;21034;-76
2022/10/29 08:24:22;;;;;;;36.33;21.40;;;;;;;9.51;84.07;98791.55;1640615;86;21006;-76
2022/10/29 08:26:50;;;;;;;28.42;14.65;;;;;;;9.61;84.00;98779.52;1653843;86;21015;-76
2022/10/29 08:29:20;;;;;;;22.17;14.33;;;;;;;9.72;83.58;98781.56;1657221;85;21439;-75
2022/10/29 08:31:46;;;;;;;20.50;13.98;;;;;;;9.81;83.53;98777.05;1654878;86;20999;-76
2022/10/29 08:34:12;;;;;;;24.20;14.45;;;;;;;9.91;83.25;98776.02;1674082;84;21030;-76
2022/10/29 08:36:40;;;;;;;19.65;14.15;;;;;;;10.01;83.06;98774.98;1674075;85;20974;-76
2022/10/29 08:39:07;;;;;;;18.70;12.53;;;;;;;10.11;82.44;98773.53;1673344;84;21006;-76
2022/10/29 08:42:00;;;;;;;19.35;11.60;;;;;;;10.21;82.53;98765.02;1673464;85;21066;-76
2022/10/29 08:44:50;;;;;;;19.73;12.18;;;;;;;10.32;82.50;98770.12;1673360;86;21440;-76
2022/10/29 08:47:21;;;;;;;19.65;12.15;;;;;;;10.43;82.45;98764.22;1674160;85;21424;-76
2022/10/29 08:50:17;;;;;;;21.70;11.97;;;;;;;10.52;82.28;98753.49;1658636;84;21080;-77
2022/10/29 08:52:45;;;;;;;20.23;13.05;;;;;;;10.64;81.92;98761.69;1666907;84;21010;-77
2022/10/29 08:55:24;;;;;;;18.77;12.10;;;;;;;10.79;81.99;98767.15;1666730;84;21081;-77
2022/10/29 08:57:58;;;;;;;24.98;13.72;;;;;;;10.91;81.62;98760.75;1649981;84;21017;-75
2022/10/29 09:00:37;;;;;;;20.25;14.15;;;;;;;11.04;80.45;98758.73;1651313;84;21030;-76
2022/10/29 09:03:12;;;;;;;29.85;14.15;;;;;;;11.19;79.13;98760.67;1664116;84;21065;-77
2022/10/29 09:05:49;;;;;;;34.03;14.80;;;;;;;11.33;80.68;98758.61;1663289;84;20989;-77
2022/10/29 09:08:37;;;;;;;24.72;12.90;;;;;;;11.50;81.06;98754.72;1621913;87;21059;-76
2022/10/29 09:11:09;;;;;;;21.73;11.15;;;;;;;11.64;80.47;98758.44;1641671;86;21010;-75
2022/10/29 09:14:09;;;;;;;20.97;9.88;;;;;;;11.79;80.16;98753.69;1616188;85;21463;-75
2022/10/29 09:16:57;;;;;;;19.50;10.63;;;;;;;11.88;80.17;98754.34;1643343;86;21058;-75
2022/10/29 09:19:49;;;;;;;15.88;9.13;;;;;;;12.00;78.27;98744.37;1641588;86;21432;-76
2022/10/29 09:22:30;;;;;;;15.13;8.75;;;;;;;12.19;79.40;98747.92;1641257;86;21018;-76
2022/10/29 09:25:04;;;;;;;16.62;10.25;;;;;;;12.39;79.01;98743.46;1637526;86;21576;-76
2022/10/29 09:27:48;;;;;;;19.98;11.83;;;;;;;12.57;78.48;98735.95;1642328;86;20994;-76
2022/10/29 09:30:19;;;;;;;15.78;9.30;;;;;;;12.71;78.41;98741.75;1641308;86;21062;-76
2022/10/29 09:33:14;;;;;;;12.75;8.68;;;;;;;12.80;75.48;98735.33;1660686;86;21011;-75
2022/10/29 09:35:54;;;;;;;16.67;9.75;;;;;;;12.91;74.22;98735.91;1666943;85;21045;-77
2022/10/29 09:38:38;;;;;;;18.23;10.25;;;;;;;13.01;75.77;98739.64;1666190;85;21030;-77
2022/10/29 09:41:10;;;;;;;18.17;11.45;;;;;;;13.05;75.34;98734.19;1667938;86;21019;-77
2022/10/29 09:44:02;;;;;;;16.80;11.70;;;;;;;13.15;74.91;98733.48;1648283;86;21484;-77
2022/10/29 09:46:38;;;;;;;18.07;11.60;;;;;;;13.25;74.68;98732.75;1667874;86;20958;-76
2022/10/29 09:49:15;;;;;;;19.70;12.47;;;;;;;13.33;75.03;98724.09;1656045;86;21024;-76
2022/10/29 09:51:59;;;;;;;23.12;14.50;;;;;;;13.36;73.99;98718.28;1663426;86;21043;-76
2022/10/29 09:54:30;;;;;;;22.45;14.15;;;;;;;13.38;74.03;98713.77;1656737;85;21071;-77
2022/10/29 09:57:02;;;;;;;19.50;14.03;;;;;;;13.38;73.88;98716.44;1628475;87;20982;-77
2022/10/29 09:59:42;;;;;;;20.05;13.38;;;;;;;13.36;73.53;98722.28;1641214;86;21453;-75
2022/10/29 10:02:37;;;;;;;20.45;14.38;;;;;;;13.38;72.99;98718.65;1645383;86;21027;-75
2022/10/29 10:05:18;;;;;;;22.93;14.83;;;;;;;13.44;74.09;98717.58;1640712;86;21022;-75
2022/10/29 10:08:05;;;;;;;23.10;16.45;;;;;;;13.48;74.03;98713.94;1659542;85;21034;-74
2022/10/29 10:10:35;;;;;;;21.62;15.10;;;;;;;13.50;73.75;98716.12;1664320;85;21001;-74
2022/10/29 10:13:04;;;;;;;23.80;16.37;;;;;;;13.57;74.27;98712.78;1687290;85;21402;-74
2022/10/29 10:15:36;;;;;;;23.87;15.83;;;;;;;13.61;73.85;98708.26;1682113;84;21446;-70
2022/10/29 10:18:08;;;;;;;24.90;16.27;;;;;;;13.67;74.29;98706.73;1647514;85;21018;-71
2022/10/29 10:20:43;;;;;;;28.77;18.10;;;;;;;13.75;74.45;98702.05;1639842;86;20975;-70
2022/10/29 10:23:31;;;;;;;26.00;17.37;;;;;;;13.82;73.62;98712.02;1640833;86;21018;-69
2022/10/29 10:26:00;;;;;;;23.60;14.85;;;;;;;13.86;73.23;98703.91;1636089;86;21010;-70
2022/10/29 10:28:30;;;;;;;28.57;16.17;;;;;;;14.05;73.55;98704.66;1659226;85;21506;-70
2022/10/29 10:31:13;;;;;;;23.12;16.15;;;;;;;14.82;73.91;98699.46;1659354;85;21073;-70
2022/10/29 10:33:51;;;;;;;24.02;15.10;;;;;;;15.80;72.17;98696.69;1665021;83;21010;-70
2022/10/29 10:36:25;;;;;;;21.25;15.58;;;;;;;16.82;69.21;98694.73;1673314;83;20986;-70
2022/10/29 10:38:55;;;;;;;23.35;14.63;;;;;;;17.84;67.54;98682.11;1675025;84;21498;-70
2022/10/29 10:41:29;;;;;;;24.63;15.38;;;;;;;18.76;67.34;98673.58;1683288;84;21033;-70
2022/10/29 10:44:04;;;;;;;24.02;15.15;;;;;;;19.43;59.29;98676.77;1682648;84;21479;-70
2022/10/29 10:46:36;;;;;;;20.82;15.08;;;;;;;20.10;57.75;98677.95;1665420;85;21021;-70
2022/10/29 10:49:13;;;;;;;19.50;15.08;;;;;;;20.69;59.51;98667.75;1659374;85;21121;-70
2022/10/29 10:51:53;;;;;;;18.60;14.23;;;;;;;21.02;57.24;98657.75;1659641;85;21005;-70
2022/10/29 10:54:40;;;;;;;16.52;13.93;;;;;;;21.84;55.44;98654.39;1659948;85;21045;-70
2022/10/29 10:57:15;;;;;;;18.20;14.28;;;;;;;22.53;54.84;98646.72;1659662;85;21399;-69
2022/10/29 11:00:07;;;;;;;19.67;14.18;;;;;;;22.68;52.79;98642.58;1668137;84;21006;-69
2022/10/29 11:02:51;;;;;;;18.57;14.23;;;;;;;23.30;52.18;98642.27;1679625;84;20970;-69
2022/10/29 11:05:23;;;;;;;17.02;13.65;;;;;;;23.63;45.83;98637.27;1681689;84;20998;-68
2022/10/29 11:08:21;;;;;;;16.77;13.93;;;;;;;23.78;49.04;98631.70;1671453;84;21061;-69
2022/10/29 11:10:54;;;;;;;17.67;13.50;;;;;;;23.67;48.90;98636.04;1673140;84;21037;-70
2022/10/29 11:13:24;;;;;;;20.08;14.00;;;;;;;24.18;49.73;98634.14;1684037;84;21063;-71
2022/10/29 11:16:02;;;;;;;18.73;14.85;;;;;;;24.34;46.69;98623.49;1662564;84;21001;-71
2022/10/29 11:18:58;;;;;;;19.27;14.93;;;;;;;24.64;46.65;98619.38;1678742;84;20958;-70
2022/10/29 11:21:49;;;;;;;19.27;13.83;;;;;;;24.69;44.33;98617.65;1673482;84;21069;-71
2022/10/29 11:24:27;;;;;;;16.67;13.50;;;;;;;24.90;45.76;98616.01;1653876;84;21594;-68
2022/10/29 11:27:22;;;;;;;18.98;13.10;;;;;;;24.69;45.62;98617.17;1642999;84;21013;-69
2022/10/29 11:30:07;;;;;;;20.23;14.35;;;;;;;24.17;44.56;98612.11;1665229;84;21029;-70
2022/10/29 11:33:03;;;;;;;18.57;13.95;;;;;;;23.47;45.85;98610.47;1675062;84;21018;-69
2022/10/29 11:36:02;;;;;;;17.00;13.75;;;;;;;23.39;48.08;98608.33;1682621;83;21017;-70
2022/10/29 11:38:37;;;;;;;20.15;14.03;;;;;;;23.50;47.75;98605.33;1661954;84;20989;-70
2022/10/29 11:41:39;;;;;;;18.07;13.70;;;;;;;23.59;46.74;98601.95;1667139;84;21432;-70
2022/10/29 11:44:11;;;;;;;18.00;12.78;;;;;;;23.21;46.76;98606.45;1677806;84;21146;-70
2022/10/29 11:47:19;;;;;;;17.10;13.17;;;;;;;22.77;47.60;98611.34;1673685;84;21014;-70
2022/10/29 11:50:17;;;;;;;21.12;13.20;;;;;;;22.68;48.65;98604.75;1671739;84;21001;-70
2022/10/29 11:52:54;;;;;;;18.00;13.13;;;;;;;22.75;48.81;98597.93;1599570;85;21043;-69